Terminal Aerodrome Forecast
Issued by NWS

Home | Current Version | Previous Version | Text Only | Print | Product List | Glossary On
Versions: 1 2 3 4 5 6 7 8 9 10 11 12 13 14 15 16 17 18 19 20 21 22 23 24
000
FTUS43 KSGF 220500
TAFJLN
TAF
KJLN 220520Z 2206/2306 00000KT P6SM FEW250
     FM221400 12008KT P6SM SCT100 BKN250
     FM222100 VRB06KT P6SM -SHRA BKN050 OVC100
     FM230100 08003KT P6SM SCT030 OVC050=

USA.gov is the U.S. government's official web portal to all federal, state and local government web resources and services.